createdAt,value
2018-07-31T00:00:26.451Z,0.40
2018-07-31T00:02:54.676Z,0.40
2018-07-31T00:05:22.886Z,0.50
2018-07-31T00:07:52.638Z,0.50
2018-07-31T00:10:20.905Z,0.50
2018-07-31T00:12:49.157Z,0.50
2018-07-31T00:15:18.131Z,0.40
2018-07-31T00:17:47.109Z,0.50
2018-07-31T00:20:15.358Z,0.50
2018-07-31T00:22:43.616Z,0.40
2018-07-31T00:25:11.904Z,0.43
2018-07-31T00:27:40.171Z,0.40
2018-07-31T00:30:08.415Z,0.40
2018-07-31T00:32:37.388Z,0.50
2018-07-31T00:35:05.636Z,0.50
2018-07-31T00:37:33.863Z,0.50
2018-07-31T00:40:03.170Z,0.50
2018-07-31T00:42:31.354Z,0.50
2018-07-31T00:44:59.576Z,0.50
2018-07-31T00:47:27.804Z,0.50
2018-07-31T00:49:56.826Z,0.50
2018-07-31T00:52:25.094Z,0.43
2018-07-31T00:54:53.366Z,0.40
2018-07-31T00:57:21.616Z,0.40
2018-07-31T00:59:49.831Z,0.50
2018-07-31T01:02:18.108Z,0.40
2018-07-31T01:04:46.351Z,0.40
2018-07-31T01:07:14.556Z,0.40
2018-07-31T01:09:42.823Z,0.50
2018-07-31T01:12:11.786Z,0.50
2018-07-31T01:14:40.768Z,0.50
2018-07-31T01:17:08.989Z,0.40
2018-07-31T01:19:37.196Z,0.47
2018-07-31T01:22:05.428Z,0.60
2018-07-31T01:24:34.399Z,0.60
2018-07-31T01:27:02.678Z,0.50
2018-07-31T01:29:30.926Z,0.43
2018-07-31T01:31:59.942Z,0.47
2018-07-31T01:34:28.171Z,0.50
2018-07-31T01:36:56.433Z,0.50
2018-07-31T01:39:24.635Z,0.50
2018-07-31T01:41:52.891Z,0.40
2018-07-31T01:44:21.149Z,0.50
2018-07-31T01:46:50.145Z,0.50
2018-07-31T01:49:19.133Z,0.50
2018-07-31T01:51:48.110Z,0.50
2018-07-31T01:54:16.381Z,0.50
2018-07-31T01:56:44.619Z,0.50
2018-07-31T01:59:12.887Z,0.40
2018-07-31T02:01:41.134Z,0.50
2018-07-31T02:04:09.357Z,0.40
2018-07-31T02:06:37.607Z,0.50
2018-07-31T02:09:05.811Z,0.50
2018-07-31T02:11:34.041Z,0.50
2018-07-31T02:14:02.297Z,0.50
2018-07-31T02:16:30.559Z,0.50
2018-07-31T02:18:58.802Z,0.50
2018-07-31T02:21:27.030Z,0.50
2018-07-31T02:23:55.270Z,0.50
2018-07-31T02:26:23.531Z,0.50
2018-07-31T02:28:51.791Z,0.40
2018-07-31T02:31:20.001Z,0.40
2018-07-31T02:33:48.250Z,0.40
2018-07-31T02:36:16.457Z,0.40
2018-07-31T02:38:44.675Z,0.50
2018-07-31T02:41:13.697Z,0.50
2018-07-31T02:43:41.956Z,0.50
2018-07-31T02:46:10.966Z,0.50
2018-07-31T02:48:39.196Z,0.50
2018-07-31T02:51:07.442Z,0.50
2018-07-31T02:53:35.708Z,0.50
2018-07-31T02:56:03.958Z,0.50
2018-07-31T02:58:32.934Z,0.50
2018-07-31T03:01:01.200Z,0.50
2018-07-31T03:03:29.442Z,0.50
2018-07-31T03:05:57.670Z,0.50
2018-07-31T03:08:26.694Z,0.50
2018-07-31T03:10:54.900Z,0.50
2018-07-31T03:13:23.152Z,0.50
2018-07-31T03:15:51.387Z,0.50
2018-07-31T03:18:20.360Z,0.40
2018-07-31T03:20:48.620Z,0.50
2018-07-31T03:23:16.835Z,0.50
2018-07-31T03:25:45.052Z,0.50
2018-07-31T03:28:13.346Z,0.57
2018-07-31T03:30:41.576Z,0.53
2018-07-31T03:33:10.620Z,0.50
2018-07-31T03:35:38.821Z,0.50
2018-07-31T03:38:07.021Z,0.50
2018-07-31T03:40:35.294Z,0.50
2018-07-31T03:43:04.331Z,0.50
2018-07-31T03:45:32.615Z,0.50
2018-07-31T03:48:00.815Z,0.50
2018-07-31T03:50:29.104Z,0.50
2018-07-31T03:52:57.317Z,0.50
2018-07-31T03:55:25.564Z,0.50
2018-07-31T03:57:54.562Z,0.50
2018-07-31T04:00:22.821Z,0.60
2018-07-31T04:02:51.068Z,0.50
2018-07-31T04:05:19.353Z,0.43
2018-07-31T04:07:47.613Z,0.50
2018-07-31T04:10:15.812Z,0.50
2018-07-31T04:12:44.018Z,0.40
2018-07-31T04:15:13.024Z,0.60
2018-07-31T04:17:42.318Z,0.50
2018-07-31T04:20:11.377Z,0.50
2018-07-31T04:22:39.590Z,0.50
2018-07-31T04:25:08.660Z,0.50
2018-07-31T04:27:36.876Z,0.50
2018-07-31T04:30:05.179Z,0.50
2018-07-31T04:32:34.128Z,0.50
2018-07-31T04:35:02.371Z,0.50
2018-07-31T04:37:30.688Z,0.50
2018-07-31T04:39:58.936Z,0.50
2018-07-31T04:42:27.319Z,0.50
2018-07-31T04:44:55.489Z,0.50
2018-07-31T04:47:23.726Z,0.60
2018-07-31T04:49:51.993Z,0.50
2018-07-31T04:52:20.247Z,0.60
2018-07-31T04:54:48.458Z,0.50
2018-07-31T04:57:16.681Z,0.60
2018-07-31T04:59:44.966Z,0.50
2018-07-31T05:02:13.218Z,0.60
2018-07-31T05:04:41.412Z,0.50
2018-07-31T05:07:09.731Z,0.50
2018-07-31T05:09:37.932Z,0.57
2018-07-31T05:12:06.201Z,0.50
2018-07-31T05:14:34.462Z,0.50
2018-07-31T05:17:03.663Z,0.50
2018-07-31T05:19:31.910Z,0.50
2018-07-31T05:22:00.912Z,0.50
2018-07-31T05:24:29.492Z,0.50
2018-07-31T05:26:57.696Z,0.47
2018-07-31T05:29:25.958Z,0.40
2018-07-31T05:31:54.170Z,0.47
2018-07-31T05:34:22.398Z,0.40
2018-07-31T05:36:50.654Z,0.50
2018-07-31T05:39:18.876Z,0.50
2018-07-31T05:41:47.086Z,0.50
2018-07-31T05:44:15.353Z,0.60
2018-07-31T05:46:43.603Z,0.50
2018-07-31T05:49:11.805Z,0.50
2018-07-31T05:51:40.018Z,0.50
2018-07-31T05:54:08.997Z,0.50
2018-07-31T05:56:37.265Z,0.50
2018-07-31T05:59:05.466Z,0.60
2018-07-31T06:01:35.388Z,0.50
2018-07-31T06:04:04.405Z,0.50
2018-07-31T06:06:32.674Z,0.50
2018-07-31T06:09:01.676Z,0.40
2018-07-31T06:11:29.915Z,0.40
2018-07-31T06:13:58.130Z,0.50
2018-07-31T06:16:26.340Z,0.50
2018-07-31T06:18:54.600Z,0.50
2018-07-31T06:21:22.818Z,0.50
2018-07-31T06:23:51.099Z,0.50
2018-07-31T06:26:19.351Z,0.40
2018-07-31T06:28:47.545Z,0.50
2018-07-31T06:31:15.777Z,0.57
2018-07-31T06:33:43.983Z,0.50
2018-07-31T06:36:12.263Z,0.50
2018-07-31T06:38:40.502Z,0.50
2018-07-31T06:41:08.739Z,0.50
2018-07-31T06:43:37.801Z,0.40
2018-07-31T06:46:05.979Z,0.50
2018-07-31T06:48:34.241Z,0.40
2018-07-31T06:51:02.484Z,0.50
2018-07-31T06:53:31.475Z,0.50
2018-07-31T06:55:59.720Z,0.50
2018-07-31T06:58:27.994Z,0.50
2018-07-31T07:00:57.106Z,0.47
2018-07-31T07:03:26.109Z,0.43
2018-07-31T07:05:55.098Z,0.40
2018-07-31T07:08:24.081Z,0.50
2018-07-31T07:10:52.363Z,0.40
2018-07-31T07:13:20.568Z,0.40
2018-07-31T07:15:48.825Z,0.40
2018-07-31T07:18:17.892Z,0.47
2018-07-31T07:20:46.137Z,0.40
2018-07-31T07:23:14.400Z,0.40
2018-07-31T07:25:42.642Z,0.40
2018-07-31T07:28:10.905Z,0.50
2018-07-31T07:30:39.120Z,0.40
2018-07-31T07:33:07.384Z,0.40
2018-07-31T07:35:35.606Z,0.40
2018-07-31T07:38:03.903Z,0.50
2018-07-31T07:40:32.120Z,0.40
2018-07-31T07:43:00.340Z,0.40
2018-07-31T07:45:28.598Z,0.40
2018-07-31T07:47:56.848Z,0.30
2018-07-31T07:50:25.819Z,0.40
2018-07-31T07:52:54.049Z,0.40
2018-07-31T07:55:22.268Z,0.40
2018-07-31T07:57:50.495Z,0.40
2018-07-31T08:00:18.722Z,0.50
2018-07-31T08:02:46.939Z,0.40
2018-07-31T08:05:15.189Z,0.40
2018-07-31T08:07:44.199Z,0.40
2018-07-31T08:10:12.447Z,0.40
2018-07-31T08:12:40.668Z,0.50
2018-07-31T08:15:08.900Z,0.30
2018-07-31T08:17:37.125Z,0.43
2018-07-31T08:20:05.340Z,0.50
2018-07-31T08:22:33.678Z,0.40
2018-07-31T08:25:01.919Z,0.40
2018-07-31T08:27:30.183Z,0.40
2018-07-31T08:29:58.427Z,0.40
2018-07-31T08:32:26.667Z,0.40
2018-07-31T08:34:54.923Z,0.40
2018-07-31T08:37:23.905Z,0.40
2018-07-31T08:39:52.948Z,0.40
2018-07-31T08:42:21.205Z,0.40
2018-07-31T08:44:50.209Z,0.40
2018-07-31T08:47:18.483Z,0.40
2018-07-31T08:49:46.704Z,0.40
2018-07-31T08:52:14.925Z,0.40
2018-07-31T08:54:43.179Z,0.40
2018-07-31T08:57:11.416Z,0.40
2018-07-31T08:59:39.625Z,0.40
2018-07-31T09:02:07.852Z,0.40
2018-07-31T09:04:36.061Z,0.40
2018-07-31T09:07:04.309Z,0.40
2018-07-31T09:09:32.506Z,0.40
2018-07-31T09:12:00.800Z,0.43
2018-07-31T09:14:29.063Z,0.50
2018-07-31T09:16:57.306Z,0.40
2018-07-31T09:19:25.526Z,0.50
2018-07-31T09:21:53.739Z,0.40
2018-07-31T09:24:22.003Z,0.50
2018-07-31T09:26:50.230Z,0.50
2018-07-31T09:29:18.490Z,0.40
2018-07-31T09:31:46.694Z,0.40
2018-07-31T09:34:14.978Z,0.40
2018-07-31T09:36:43.186Z,0.40
2018-07-31T09:39:12.196Z,0.40
2018-07-31T09:41:41.184Z,0.40
2018-07-31T09:44:09.414Z,0.40
2018-07-31T09:46:37.660Z,0.40
2018-07-31T09:49:05.868Z,0.40
2018-07-31T09:51:34.134Z,0.43
2018-07-31T09:54:02.414Z,0.40
2018-07-31T09:56:30.659Z,0.40
2018-07-31T09:58:58.965Z,0.40
2018-07-31T10:01:27.219Z,0.40
2018-07-31T10:03:55.445Z,0.40
2018-07-31T10:06:23.663Z,0.50
2018-07-31T10:08:51.895Z,0.50
2018-07-31T10:11:20.093Z,0.50
2018-07-31T10:13:49.072Z,0.40
2018-07-31T10:16:17.292Z,0.40
2018-07-31T10:18:45.560Z,0.40
2018-07-31T10:21:13.829Z,0.40
2018-07-31T10:23:42.813Z,0.37
2018-07-31T10:26:11.839Z,0.40
2018-07-31T10:28:40.056Z,0.40
2018-07-31T10:31:08.290Z,0.50
2018-07-31T10:33:36.499Z,0.40
2018-07-31T10:36:04.757Z,0.40
2018-07-31T10:38:33.023Z,0.40
2018-07-31T10:41:01.238Z,0.40
2018-07-31T10:43:29.511Z,0.40
2018-07-31T10:45:57.741Z,0.40
2018-07-31T10:48:25.955Z,0.50
2018-07-31T10:50:54.319Z,0.45
2018-07-31T10:53:22.600Z,0.50
2018-07-31T10:55:50.831Z,0.47
2018-07-31T10:58:19.949Z,0.50
2018-07-31T11:00:48.151Z,0.50
2018-07-31T11:03:16.397Z,0.40
2018-07-31T11:05:44.617Z,0.40
2018-07-31T11:08:12.880Z,0.43
2018-07-31T11:10:41.096Z,0.50
2018-07-31T11:13:10.163Z,0.47
2018-07-31T11:15:38.383Z,0.45
2018-07-31T11:18:07.403Z,0.47
2018-07-31T11:20:35.679Z,0.50
2018-07-31T11:23:03.896Z,0.45
2018-07-31T11:25:32.165Z,0.50
2018-07-31T11:28:00.427Z,0.47
2018-07-31T11:30:28.639Z,0.50
2018-07-31T11:32:57.675Z,0.50
2018-07-31T11:35:26.665Z,0.40
2018-07-31T11:37:54.923Z,0.50
2018-07-31T11:40:23.924Z,0.50
2018-07-31T11:42:52.189Z,0.57
2018-07-31T11:45:21.184Z,0.50
2018-07-31T11:47:50.180Z,0.50
2018-07-31T11:50:18.429Z,0.60
2018-07-31T11:52:46.647Z,0.50
2018-07-31T11:55:14.910Z,0.60
2018-07-31T11:57:43.896Z,0.55
2018-07-31T12:00:12.873Z,0.50
2018-07-31T12:02:41.144Z,0.50
2018-07-31T12:05:09.398Z,0.60
2018-07-31T12:07:37.864Z,0.60
2018-07-31T12:10:06.118Z,0.60
2018-07-31T12:12:35.132Z,0.57
2018-07-31T12:15:03.398Z,0.60
2018-07-31T12:17:31.650Z,0.60
2018-07-31T12:20:00.650Z,0.60
2018-07-31T12:22:29.670Z,0.57
2018-07-31T12:24:57.945Z,0.60
2018-07-31T12:27:26.158Z,0.60
2018-07-31T12:29:54.376Z,0.60
2018-07-31T12:32:23.494Z,0.60
2018-07-31T12:34:51.703Z,0.60
2018-07-31T12:37:19.986Z,0.60
2018-07-31T12:39:48.202Z,0.60
2018-07-31T12:42:17.237Z,0.60
2018-07-31T12:44:45.499Z,0.60
2018-07-31T12:47:13.697Z,0.60
2018-07-31T12:49:41.975Z,0.60
2018-07-31T12:52:10.198Z,0.60
2018-07-31T12:54:39.199Z,0.60
2018-07-31T12:57:08.191Z,0.60
2018-07-31T12:59:37.165Z,0.60
2018-07-31T13:02:06.178Z,0.60
2018-07-31T13:04:35.191Z,0.60
2018-07-31T13:07:03.407Z,0.60
2018-07-31T13:09:31.620Z,0.60
2018-07-31T13:12:00.621Z,0.60
2018-07-31T13:14:28.867Z,0.60
2018-07-31T13:16:57.129Z,0.70
2018-07-31T13:19:25.391Z,0.60
2018-07-31T13:21:53.606Z,0.60
2018-07-31T13:24:21.883Z,0.60
2018-07-31T13:26:50.131Z,0.60
2018-07-31T13:29:18.372Z,0.60
2018-07-31T13:31:46.592Z,0.60
2018-07-31T13:34:14.804Z,0.60
2018-07-31T13:36:43.805Z,0.60
2018-07-31T13:39:12.052Z,0.60
2018-07-31T13:41:40.308Z,0.60
2018-07-31T13:44:08.687Z,0.60
2018-07-31T13:46:37.541Z,0.60
2018-07-31T13:49:05.758Z,0.60
2018-07-31T13:51:34.013Z,0.60
2018-07-31T13:54:02.230Z,0.60
2018-07-31T13:56:30.492Z,0.60
2018-07-31T13:58:58.710Z,0.60
2018-07-31T14:01:26.973Z,0.60
2018-07-31T14:03:55.216Z,0.60
2018-07-31T14:06:23.423Z,0.60
2018-07-31T14:08:51.636Z,0.60
2018-07-31T14:11:19.888Z,0.60
2018-07-31T14:13:48.966Z,0.60
2018-07-31T14:16:17.179Z,0.60
2018-07-31T14:18:45.399Z,0.60
2018-07-31T14:21:13.694Z,0.60
2018-07-31T14:23:41.948Z,0.60
2018-07-31T14:26:10.150Z,0.60
2018-07-31T14:28:39.157Z,0.65
2018-07-31T14:31:08.126Z,0.60
2018-07-31T14:33:36.386Z,0.60
2018-07-31T14:36:04.634Z,0.60
2018-07-31T14:38:32.852Z,0.70
2018-07-31T14:41:01.081Z,0.60
2018-07-31T14:43:29.300Z,0.60
2018-07-31T14:45:57.596Z,0.70
2018-07-31T14:48:25.862Z,0.60
2018-07-31T14:50:54.138Z,0.60
2018-07-31T14:53:22.366Z,0.70
2018-07-31T14:55:50.584Z,0.60
2018-07-31T14:58:18.878Z,0.60
2018-07-31T15:00:47.120Z,0.70
2018-07-31T15:03:15.361Z,0.70
2018-07-31T15:05:43.617Z,0.70
2018-07-31T15:08:12.653Z,0.70
2018-07-31T15:10:40.971Z,0.70
2018-07-31T15:13:09.148Z,0.70
2018-07-31T15:15:37.384Z,0.70
2018-07-31T15:18:05.645Z,0.70
2018-07-31T15:20:33.879Z,0.60
2018-07-31T15:23:02.144Z,0.70
2018-07-31T15:25:30.363Z,0.70
2018-07-31T15:27:58.668Z,0.70
2018-07-31T15:30:27.641Z,0.62
2018-07-31T15:32:55.922Z,0.60
2018-07-31T15:35:24.926Z,0.60
2018-07-31T15:37:53.148Z,0.60
2018-07-31T15:40:21.406Z,0.70
2018-07-31T15:42:49.664Z,0.70
2018-07-31T15:45:17.947Z,0.70
2018-07-31T15:47:46.167Z,0.68
2018-07-31T15:50:14.441Z,0.70
2018-07-31T15:52:42.692Z,0.68
2018-07-31T15:55:10.951Z,0.70
2018-07-31T15:57:39.157Z,0.70
2018-07-31T16:00:07.388Z,0.70
2018-07-31T16:02:35.607Z,0.70
2018-07-31T16:05:03.840Z,0.70
2018-07-31T16:07:32.096Z,0.70
2018-07-31T16:10:01.093Z,0.70
2018-07-31T16:12:29.309Z,0.60
2018-07-31T16:14:57.556Z,0.70
2018-07-31T16:17:25.777Z,0.60
2018-07-31T16:19:54.059Z,0.70
2018-07-31T16:22:22.263Z,0.60
2018-07-31T16:24:51.262Z,0.60
2018-07-31T16:27:20.246Z,0.70
2018-07-31T16:29:49.303Z,0.60
2018-07-31T16:32:17.544Z,0.70
2018-07-31T16:34:45.782Z,0.70
2018-07-31T16:37:13.982Z,0.70
2018-07-31T16:39:42.274Z,0.70
2018-07-31T16:42:11.274Z,0.70
2018-07-31T16:44:39.508Z,0.70
2018-07-31T16:47:08.536Z,0.70
2018-07-31T16:49:36.787Z,0.60
2018-07-31T16:52:05.802Z,0.70
2018-07-31T16:54:34.068Z,0.60
2018-07-31T16:57:03.100Z,0.70
2018-07-31T16:59:31.264Z,0.70
2018-07-31T17:01:59.529Z,0.60
2018-07-31T17:04:27.758Z,0.60
2018-07-31T17:06:55.982Z,0.70
2018-07-31T17:09:24.248Z,0.65
2018-07-31T17:11:53.216Z,0.60
2018-07-31T17:14:21.490Z,0.60
2018-07-31T17:16:49.753Z,0.60
2018-07-31T17:19:18.001Z,0.60
2018-07-31T17:21:46.255Z,0.60
2018-07-31T17:24:14.489Z,0.70
2018-07-31T17:26:42.713Z,0.60
2018-07-31T17:29:10.952Z,0.70
2018-07-31T17:31:39.220Z,0.60
2018-07-31T17:34:07.435Z,0.60
2018-07-31T17:36:35.647Z,0.60
2018-07-31T17:39:03.918Z,0.60
2018-07-31T17:41:32.126Z,0.60
2018-07-31T17:44:00.414Z,0.60
2018-07-31T17:46:28.663Z,0.60
2018-07-31T17:48:56.887Z,0.60
2018-07-31T17:51:25.130Z,0.60
2018-07-31T17:53:53.344Z,0.60
2018-07-31T17:56:22.347Z,0.55
2018-07-31T17:58:50.564Z,0.55
2018-07-31T18:01:18.829Z,0.50
2018-07-31T18:03:47.033Z,0.60
2018-07-31T18:06:15.259Z,0.55
2018-07-31T18:08:43.480Z,0.57
2018-07-31T18:11:11.783Z,0.60
2018-07-31T18:13:40.747Z,0.55
2018-07-31T18:16:09.037Z,0.50
2018-07-31T18:18:37.312Z,0.50
2018-07-31T18:21:05.544Z,0.50
2018-07-31T18:23:33.818Z,0.50
2018-07-31T18:26:02.029Z,0.50
2018-07-31T18:28:30.283Z,0.50
2018-07-31T18:30:58.520Z,0.50
2018-07-31T18:33:26.740Z,0.50
2018-07-31T18:35:55.014Z,0.50
2018-07-31T18:38:23.260Z,0.50
2018-07-31T18:40:51.500Z,0.50
2018-07-31T18:43:19.761Z,0.50
2018-07-31T18:45:48.029Z,0.50
2018-07-31T18:48:16.288Z,0.50
2018-07-31T18:50:44.550Z,0.40
2018-07-31T18:53:12.786Z,0.40
2018-07-31T18:55:41.000Z,0.40
2018-07-31T18:58:09.270Z,0.43
2018-07-31T19:00:38.242Z,0.50
2018-07-31T19:03:07.224Z,0.40
2018-07-31T19:05:35.503Z,0.40
2018-07-31T19:08:03.741Z,0.40
2018-07-31T19:10:32.012Z,0.40
2018-07-31T19:13:00.237Z,0.50
2018-07-31T19:15:28.505Z,0.43
2018-07-31T19:17:56.708Z,0.40
2018-07-31T19:20:24.988Z,0.40
2018-07-31T19:22:54.010Z,0.40
2018-07-31T19:25:22.244Z,0.40
2018-07-31T19:27:51.248Z,0.40
2018-07-31T19:30:19.515Z,0.43
2018-07-31T19:32:47.769Z,0.40
2018-07-31T19:35:16.046Z,0.40
2018-07-31T19:37:44.277Z,0.40
2018-07-31T19:40:12.528Z,0.40
2018-07-31T19:42:41.520Z,0.40
2018-07-31T19:45:10.549Z,0.40
2018-07-31T19:47:38.781Z,0.40
2018-07-31T19:50:07.008Z,0.40
2018-07-31T19:52:35.291Z,0.40
2018-07-31T19:55:03.608Z,0.40
2018-07-31T19:57:32.515Z,0.43
2018-07-31T20:00:01.508Z,0.40
2018-07-31T20:02:30.480Z,0.47
2018-07-31T20:04:58.771Z,0.50
2018-07-31T20:07:27.046Z,0.40
2018-07-31T20:09:55.342Z,0.40
2018-07-31T20:12:24.313Z,0.40
2018-07-31T20:14:52.547Z,0.40
2018-07-31T20:17:20.825Z,0.40
2018-07-31T20:19:49.081Z,0.45
2018-07-31T20:22:17.341Z,0.40
2018-07-31T20:24:46.371Z,0.40
2018-07-31T20:27:14.676Z,0.40
2018-07-31T20:29:42.870Z,0.40
2018-07-31T20:32:11.113Z,0.40
2018-07-31T20:34:39.395Z,0.40
2018-07-31T20:37:07.616Z,0.40
2018-07-31T20:39:36.651Z,0.40
2018-07-31T20:42:04.839Z,0.40
2018-07-31T20:44:33.078Z,0.40
2018-07-31T20:47:01.359Z,0.50
2018-07-31T20:49:29.548Z,0.40
2018-07-31T20:51:57.802Z,0.40
2018-07-31T20:54:26.789Z,0.40
2018-07-31T20:56:55.823Z,0.40
2018-07-31T20:59:24.092Z,0.40
2018-07-31T21:01:53.070Z,0.47
2018-07-31T21:04:21.332Z,0.50
2018-07-31T21:06:50.363Z,0.40
2018-07-31T21:09:18.576Z,0.40
2018-07-31T21:11:46.806Z,0.40
2018-07-31T21:14:15.075Z,0.40
2018-07-31T21:16:43.335Z,0.40
2018-07-31T21:19:12.315Z,0.40
2018-07-31T21:21:41.370Z,0.40
2018-07-31T21:24:09.576Z,0.40
2018-07-31T21:26:37.837Z,0.40
2018-07-31T21:29:06.049Z,0.40
2018-07-31T21:31:35.750Z,0.40
2018-07-31T21:34:04.028Z,0.40
2018-07-31T21:36:32.269Z,0.40
2018-07-31T21:39:00.533Z,0.37
2018-07-31T21:41:28.784Z,0.40
2018-07-31T21:43:57.785Z,0.40
2018-07-31T21:46:26.059Z,0.40
2018-07-31T21:48:54.302Z,0.40
2018-07-31T21:51:22.511Z,0.30
2018-07-31T21:53:50.775Z,0.30
2018-07-31T21:56:19.749Z,0.30
2018-07-31T21:58:48.819Z,0.30
2018-07-31T22:01:17.028Z,0.40
2018-07-31T22:03:46.079Z,0.40
2018-07-31T22:06:14.295Z,0.40
2018-07-31T22:08:43.309Z,0.40
2018-07-31T22:11:12.294Z,0.40
2018-07-31T22:13:41.313Z,0.40
2018-07-31T22:16:09.571Z,0.30
2018-07-31T22:18:38.583Z,0.40
2018-07-31T22:21:06.856Z,0.40
2018-07-31T22:23:35.069Z,0.40
2018-07-31T22:26:03.300Z,0.50
2018-07-31T22:28:31.553Z,0.30
2018-07-31T22:30:59.782Z,0.40
2018-07-31T22:33:27.996Z,0.40
2018-07-31T22:35:56.308Z,0.40
2018-07-31T22:38:25.274Z,0.40
2018-07-31T22:40:54.561Z,0.37
2018-07-31T22:43:22.818Z,0.40
2018-07-31T22:45:51.066Z,0.40
2018-07-31T22:48:19.358Z,0.40
2018-07-31T22:50:47.560Z,0.30
2018-07-31T22:53:15.767Z,0.40
2018-07-31T22:55:44.793Z,0.40
2018-07-31T22:58:13.044Z,0.30
2018-07-31T23:00:42.028Z,0.40
2018-07-31T23:03:10.296Z,0.40
2018-07-31T23:05:38.538Z,0.40
2018-07-31T23:08:06.798Z,0.40
2018-07-31T23:10:35.004Z,0.40
2018-07-31T23:13:03.272Z,0.40
2018-07-31T23:15:31.485Z,0.40
2018-07-31T23:18:00.471Z,0.40
2018-07-31T23:20:28.725Z,0.40
2018-07-31T23:22:56.995Z,0.40
2018-07-31T23:25:25.252Z,0.30
2018-07-31T23:27:53.525Z,0.40
2018-07-31T23:30:21.717Z,0.40
2018-07-31T23:32:49.946Z,0.40
2018-07-31T23:35:18.973Z,0.40
2018-07-31T23:37:47.240Z,0.30
2018-07-31T23:40:15.496Z,0.40
2018-07-31T23:42:44.529Z,0.40
2018-07-31T23:45:12.747Z,0.40
2018-07-31T23:47:40.978Z,0.40
2018-07-31T23:50:09.230Z,0.30
2018-07-31T23:52:38.207Z,0.40
2018-07-31T23:55:07.205Z,0.40
2018-07-31T23:57:36.221Z,0.40
